createdAt,value
2023-05-10T00:00:04.329Z,94264.00
2023-05-10T00:01:04.369Z,94268.00
2023-05-10T00:02:04.467Z,94266.00
2023-05-10T00:03:04.468Z,94264.00
2023-05-10T00:04:04.415Z,94262.00
2023-05-10T00:05:04.349Z,94262.00
2023-05-10T00:06:04.369Z,94260.00
2023-05-10T00:07:04.346Z,94260.00
2023-05-10T00:08:04.373Z,94260.00
2023-05-10T00:09:04.347Z,94260.00
2023-05-10T00:10:04.307Z,94260.00
2023-05-10T00:11:04.290Z,94262.00
2023-05-10T00:12:04.347Z,94266.00
2023-05-10T00:13:04.345Z,94262.00
2023-05-10T00:14:04.354Z,94260.00
2023-05-10T00:15:04.292Z,94264.00
2023-05-10T00:16:04.415Z,94262.00
2023-05-10T00:17:04.372Z,94262.00
2023-05-10T00:18:04.495Z,94260.00
2023-05-10T00:19:04.405Z,94260.00
2023-05-10T00:20:04.389Z,94262.00
2023-05-10T00:21:04.396Z,94260.00
2023-05-10T00:22:04.421Z,94260.00
2023-05-10T00:23:04.416Z,94262.00
2023-05-10T00:24:04.440Z,94262.00
2023-05-10T00:25:04.416Z,94264.00
2023-05-10T00:26:04.429Z,94262.00
2023-05-10T00:27:04.430Z,94264.00
2023-05-10T00:28:04.439Z,94264.00
2023-05-10T00:29:04.453Z,94262.00
2023-05-10T00:30:04.475Z,94262.00
2023-05-10T00:31:04.492Z,94262.00
2023-05-10T00:32:04.583Z,94262.00
2023-05-10T00:33:04.524Z,94264.00
2023-05-10T00:34:04.538Z,94266.00
2023-05-10T00:35:04.587Z,94264.00
2023-05-10T00:36:04.536Z,94266.00
2023-05-10T00:37:04.510Z,94266.00
2023-05-10T00:38:04.604Z,94268.00
2023-05-10T00:39:04.627Z,94268.00
2023-05-10T00:40:04.595Z,94270.00
2023-05-10T00:41:04.611Z,94266.00
2023-05-10T00:42:04.616Z,94272.00
2023-05-10T00:43:04.630Z,94272.00
2023-05-10T00:44:04.613Z,94270.00
2023-05-10T00:45:04.660Z,94268.00
2023-05-10T00:46:04.623Z,94272.00
2023-05-10T00:47:04.703Z,94272.00
2023-05-10T00:48:04.688Z,94270.00
2023-05-10T00:49:04.670Z,94274.00
2023-05-10T00:50:04.714Z,94272.00
2023-05-10T00:51:04.684Z,94274.00
2023-05-10T00:52:04.706Z,94274.00
2023-05-10T00:53:04.712Z,94272.00
2023-05-10T00:54:04.701Z,94274.00
2023-05-10T00:55:04.727Z,94276.00
2023-05-10T00:56:04.747Z,94272.00
2023-05-10T00:57:04.777Z,94276.00
2023-05-10T00:58:04.745Z,94274.00
2023-05-10T00:59:04.760Z,94272.00
2023-05-10T01:00:04.765Z,94274.00
2023-05-10T01:01:04.799Z,94274.00
2023-05-10T01:02:04.858Z,94272.00
2023-05-10T01:03:04.922Z,94274.00
2023-05-10T01:04:04.863Z,94272.00
2023-05-10T01:05:04.929Z,94272.00
2023-05-10T01:06:04.887Z,94272.00
2023-05-10T01:07:04.984Z,94274.00
2023-05-10T01:08:04.897Z,94274.00
2023-05-10T01:09:04.936Z,94270.00
2023-05-10T01:10:04.924Z,94274.00
2023-05-10T01:11:04.926Z,94272.00
2023-05-10T01:12:05.038Z,94276.00
2023-05-10T01:13:05.005Z,94276.00
2023-05-10T01:14:04.988Z,94276.00
2023-05-10T01:15:05.015Z,94276.00
2023-05-10T01:16:05.031Z,94276.00
2023-05-10T01:17:05.015Z,94274.00
2023-05-10T01:18:05.047Z,94274.00
2023-05-10T01:19:05.073Z,94272.00
2023-05-10T01:20:05.103Z,94270.00
2023-05-10T01:21:05.091Z,94274.00
2023-05-10T01:22:05.102Z,94274.00
2023-05-10T01:23:05.101Z,94272.00
2023-05-10T01:24:05.160Z,94274.00
2023-05-10T01:25:05.154Z,94272.00
2023-05-10T01:26:05.163Z,94270.00
2023-05-10T01:27:05.204Z,94272.00
2023-05-10T01:28:05.241Z,94270.00
2023-05-10T01:29:05.236Z,94268.00
2023-05-10T01:30:14.253Z,94268.00
2023-05-10T01:31:06.269Z,94270.00
2023-05-10T01:32:05.226Z,94270.00
2023-05-10T01:33:05.246Z,94270.00
2023-05-10T01:34:05.205Z,94270.00
2023-05-10T01:35:05.153Z,94270.00
2023-05-10T01:36:05.164Z,94270.00
2023-05-10T01:37:05.167Z,94268.00
2023-05-10T01:38:05.207Z,94268.00
2023-05-10T01:39:05.141Z,94272.00
2023-05-10T01:40:05.173Z,94266.00
2023-05-10T01:41:05.130Z,94268.00
2023-05-10T01:42:05.154Z,94264.00
2023-05-10T01:43:05.164Z,94264.00
2023-05-10T01:44:05.109Z,94266.00
2023-05-10T01:45:05.096Z,94266.00
2023-05-10T01:46:05.080Z,94266.00
2023-05-10T01:47:05.118Z,94268.00
2023-05-10T01:48:05.150Z,94270.00
2023-05-10T01:49:05.109Z,94270.00
2023-05-10T01:50:05.076Z,94270.00
2023-05-10T01:51:05.090Z,94270.00
2023-05-10T01:52:05.060Z,94272.00
2023-05-10T01:53:05.040Z,94272.00
2023-05-10T01:54:05.036Z,94272.00
2023-05-10T01:55:05.047Z,94274.00
2023-05-10T01:56:05.018Z,94272.00
2023-05-10T01:57:05.033Z,94274.00
2023-05-10T01:58:05.034Z,94276.00
2023-05-10T01:59:05.006Z,94278.00
2023-05-10T02:00:04.978Z,94276.00
2023-05-10T02:01:05.040Z,94280.00
2023-05-10T02:02:05.065Z,94280.00
2023-05-10T02:03:05.123Z,94282.00
2023-05-10T02:04:05.120Z,94284.00
2023-05-10T02:05:05.042Z,94284.00
2023-05-10T02:06:05.079Z,94288.00
2023-05-10T02:07:05.105Z,94288.00
2023-05-10T02:08:05.146Z,94288.00
2023-05-10T02:09:05.160Z,94290.00
2023-05-10T02:10:05.149Z,94290.00
2023-05-10T02:11:05.230Z,94290.00
2023-05-10T02:12:05.190Z,94288.00
2023-05-10T02:13:05.269Z,94294.00
2023-05-10T02:14:05.242Z,94294.00
2023-05-10T02:15:05.286Z,94292.00
2023-05-10T02:16:05.433Z,94294.00
2023-05-10T02:17:05.435Z,94294.00
2023-05-10T02:18:05.433Z,94294.00
2023-05-10T02:19:05.410Z,94296.00
2023-05-10T02:20:05.388Z,94298.00
2023-05-10T02:21:05.428Z,94298.00
2023-05-10T02:22:05.463Z,94298.00
2023-05-10T02:23:05.492Z,94299.00
2023-05-10T02:24:05.480Z,94299.00
2023-05-10T02:25:05.524Z,94301.00
2023-05-10T02:26:05.541Z,94299.00
2023-05-10T02:27:05.509Z,94301.00
2023-05-10T02:28:05.509Z,94299.00
2023-05-10T02:29:05.547Z,94299.00
2023-05-10T02:30:05.566Z,94301.00
2023-05-10T02:31:05.598Z,94301.00
2023-05-10T02:32:05.619Z,94301.00
2023-05-10T02:33:05.647Z,94303.00
2023-05-10T02:34:05.609Z,94303.00
2023-05-10T02:35:05.723Z,94307.00
2023-05-10T02:36:05.721Z,94305.00
2023-05-10T02:37:05.681Z,94309.00
2023-05-10T02:38:05.737Z,94311.00
2023-05-10T02:39:05.724Z,94309.00
2023-05-10T02:40:05.728Z,94309.00
2023-05-10T02:41:05.747Z,94307.00
2023-05-10T02:42:05.750Z,94309.00
2023-05-10T02:43:05.785Z,94309.00
2023-05-10T02:44:05.832Z,94305.00
2023-05-10T02:45:05.838Z,94309.00
2023-05-10T02:46:05.891Z,94305.00
2023-05-10T02:47:05.899Z,94305.00
2023-05-10T02:48:05.902Z,94311.00
2023-05-10T02:49:05.858Z,94307.00
2023-05-10T02:50:05.867Z,94307.00
2023-05-10T02:51:05.960Z,94309.00
2023-05-10T02:52:05.967Z,94309.00
2023-05-10T02:53:05.993Z,94311.00
2023-05-10T02:54:05.957Z,94311.00
2023-05-10T02:55:06.006Z,94313.00
2023-05-10T02:56:06.010Z,94313.00
2023-05-10T02:57:06.062Z,94311.00
2023-05-10T02:58:06.111Z,94313.00
2023-05-10T02:59:06.094Z,94313.00
2023-05-10T03:00:06.145Z,94313.00
2023-05-10T03:01:06.179Z,94313.00
2023-05-10T03:02:06.189Z,94313.00
2023-05-10T03:03:06.286Z,94311.00
2023-05-10T03:04:06.289Z,94313.00
2023-05-10T03:05:06.238Z,94315.00
2023-05-10T03:06:06.279Z,94311.00
2023-05-10T03:07:06.340Z,94311.00
2023-05-10T03:08:06.345Z,94311.00
2023-05-10T03:09:06.354Z,94311.00
2023-05-10T03:10:06.398Z,94311.00
2023-05-10T03:11:06.388Z,94311.00
2023-05-10T03:12:06.402Z,94311.00
2023-05-10T03:13:06.461Z,94313.00
2023-05-10T03:14:06.480Z,94311.00
2023-05-10T03:15:06.461Z,94311.00
2023-05-10T03:16:06.510Z,94313.00
2023-05-10T03:17:06.497Z,94313.00
2023-05-10T03:18:06.656Z,94313.00
2023-05-10T03:19:06.553Z,94313.00
2023-05-10T03:20:06.560Z,94315.00
2023-05-10T03:21:06.579Z,94313.00
2023-05-10T03:22:06.617Z,94317.00
2023-05-10T03:23:06.649Z,94317.00
2023-05-10T03:24:06.631Z,94317.00
2023-05-10T03:25:06.692Z,94317.00
2023-05-10T03:26:06.675Z,94319.00
2023-05-10T03:27:06.732Z,94321.00
2023-05-10T03:28:06.738Z,94323.00
2023-05-10T03:29:06.752Z,94323.00
2023-05-10T03:30:06.820Z,94325.00
2023-05-10T03:31:06.833Z,94325.00
2023-05-10T03:32:06.818Z,94325.00
2023-05-10T03:33:06.982Z,94323.00
2023-05-10T03:34:06.886Z,94323.00
2023-05-10T03:35:06.903Z,94325.00
2023-05-10T03:36:06.941Z,94325.00
2023-05-10T03:37:06.948Z,94323.00
2023-05-10T03:38:06.966Z,94327.00
2023-05-10T03:39:07.035Z,94325.00
2023-05-10T03:40:07.003Z,94327.00
2023-05-10T03:41:07.089Z,94329.00
2023-05-10T03:42:07.091Z,94329.00
2023-05-10T03:43:07.099Z,94333.00
2023-05-10T03:44:07.132Z,94331.00
2023-05-10T03:45:07.159Z,94333.00
2023-05-10T03:46:07.252Z,94333.00
2023-05-10T03:47:07.339Z,94333.00
2023-05-10T03:48:07.327Z,94335.00
2023-05-10T03:49:07.253Z,94335.00
2023-05-10T03:50:07.293Z,94337.00
2023-05-10T03:51:07.356Z,94337.00
2023-05-10T03:52:07.356Z,94337.00
2023-05-10T03:53:07.367Z,94339.00
2023-05-10T03:54:07.386Z,94337.00
2023-05-10T03:55:07.428Z,94339.00
2023-05-10T03:56:07.442Z,94341.00
2023-05-10T03:57:07.455Z,94343.00
2023-05-10T03:58:07.496Z,94343.00
2023-05-10T03:59:07.556Z,94343.00
2023-05-10T04:00:07.552Z,94345.00
2023-05-10T04:01:07.602Z,94341.00
2023-05-10T04:02:07.778Z,94362.00
2023-05-10T04:03:07.697Z,94366.00
2023-05-10T04:04:07.844Z,94364.00
2023-05-10T04:05:07.754Z,94364.00
2023-05-10T04:06:07.772Z,94364.00
2023-05-10T04:07:07.798Z,94366.00
2023-05-10T04:08:07.874Z,94362.00
2023-05-10T04:09:07.888Z,94360.00
2023-05-10T04:10:07.937Z,94360.00
2023-05-10T04:11:07.995Z,94360.00
2023-05-10T04:12:10.750Z,94360.00
2023-05-10T04:13:08.077Z,94358.00
2023-05-10T04:14:08.125Z,94358.00
2023-05-10T04:15:08.045Z,94360.00
2023-05-10T04:16:08.028Z,94360.00
2023-05-10T04:17:08.132Z,94364.00
2023-05-10T04:18:08.964Z,94362.00
2023-05-10T04:19:08.016Z,94366.00
2023-05-10T04:20:08.025Z,94364.00
2023-05-10T04:21:08.006Z,94366.00
2023-05-10T04:22:07.970Z,94364.00
2023-05-10T04:23:07.981Z,94366.00
2023-05-10T04:24:07.959Z,94364.00
2023-05-10T04:25:08.010Z,94364.00
2023-05-10T04:26:07.953Z,94366.00
2023-05-10T04:27:07.953Z,94366.00
2023-05-10T04:28:07.938Z,94368.00
2023-05-10T04:29:07.982Z,94368.00
2023-05-10T04:30:07.952Z,94368.00
2023-05-10T04:31:08.023Z,94350.00
2023-05-10T04:32:07.936Z,94350.00
2023-05-10T04:33:08.067Z,94348.00
2023-05-10T04:34:07.885Z,94346.00
2023-05-10T04:35:07.877Z,94348.00
2023-05-10T04:36:07.897Z,94350.00
2023-05-10T04:37:07.874Z,94346.00
2023-05-10T04:38:07.877Z,94346.00
2023-05-10T04:39:07.880Z,94346.00
2023-05-10T04:40:07.889Z,94345.00
2023-05-10T04:41:07.918Z,94345.00
2023-05-10T04:42:07.823Z,94345.00
2023-05-10T04:43:07.832Z,94346.00
2023-05-10T04:44:07.809Z,94345.00
2023-05-10T04:45:07.810Z,94343.00
2023-05-10T04:46:07.853Z,94346.00
2023-05-10T04:47:08.505Z,94346.00
2023-05-10T04:48:07.853Z,94346.00
2023-05-10T04:49:07.770Z,94346.00
2023-05-10T04:50:07.799Z,94348.00
2023-05-10T04:51:07.800Z,94348.00
2023-05-10T04:52:07.750Z,94307.00
2023-05-10T04:53:07.768Z,94307.00
2023-05-10T04:54:07.741Z,94307.00
2023-05-10T04:55:07.786Z,94313.00
2023-05-10T04:56:07.829Z,94350.00
2023-05-10T04:57:07.920Z,94348.00
2023-05-10T04:58:07.903Z,94346.00
2023-05-10T04:59:07.985Z,94348.00
2023-05-10T05:00:08.021Z,94350.00
2023-05-10T05:01:08.060Z,94352.00
2023-05-10T05:02:08.170Z,94352.00
2023-05-10T05:03:08.238Z,94350.00
2023-05-10T05:04:08.216Z,94352.00
2023-05-10T05:05:08.160Z,94356.00
2023-05-10T05:06:08.183Z,94354.00
2023-05-10T05:07:08.168Z,94360.00
2023-05-10T05:08:08.185Z,94360.00
2023-05-10T05:09:08.179Z,94362.00
2023-05-10T05:10:08.172Z,94364.00
2023-05-10T05:11:08.165Z,94362.00
2023-05-10T05:12:08.136Z,94364.00
2023-05-10T05:13:08.275Z,94364.00
2023-05-10T05:14:08.182Z,94366.00
2023-05-10T05:15:09.787Z,94368.00
2023-05-10T05:16:08.246Z,94366.00
2023-05-10T05:17:08.148Z,94368.00
2023-05-10T05:18:08.229Z,94368.00
2023-05-10T05:19:08.158Z,94374.00
2023-05-10T05:20:08.199Z,94368.00
2023-05-10T05:21:08.164Z,94374.00
2023-05-10T05:22:08.173Z,94374.00
2023-05-10T05:23:08.195Z,94376.00
2023-05-10T05:24:08.202Z,94374.00
2023-05-10T05:25:08.199Z,94376.00
2023-05-10T05:26:08.197Z,94376.00
2023-05-10T05:27:08.204Z,94376.00
2023-05-10T05:28:08.171Z,94376.00
2023-05-10T05:29:08.243Z,94384.00
2023-05-10T05:30:08.248Z,94384.00
2023-05-10T05:31:08.279Z,94384.00
2023-05-10T05:32:08.467Z,94384.00
2023-05-10T05:33:08.315Z,94388.00
2023-05-10T05:34:08.272Z,94386.00
2023-05-10T05:35:08.235Z,94388.00
2023-05-10T05:36:08.264Z,94388.00
2023-05-10T05:37:08.298Z,94390.00
2023-05-10T05:38:09.105Z,94390.00
2023-05-10T05:39:08.240Z,94390.00
2023-05-10T05:40:08.311Z,94390.00
2023-05-10T05:41:08.318Z,94391.00
2023-05-10T05:42:08.307Z,94391.00
2023-05-10T05:43:08.343Z,94393.00
2023-05-10T05:44:08.328Z,94391.00
2023-05-10T05:45:08.350Z,94390.00
2023-05-10T05:46:08.407Z,94415.00
2023-05-10T05:47:08.363Z,94411.00
2023-05-10T05:48:08.406Z,94413.00
2023-05-10T05:49:08.446Z,94417.00
2023-05-10T05:50:08.378Z,94417.00
2023-05-10T05:51:08.494Z,94417.00
2023-05-10T05:52:08.432Z,94415.00
2023-05-10T05:53:08.522Z,94421.00
2023-05-10T05:54:08.595Z,94419.00
2023-05-10T05:55:08.623Z,94419.00
2023-05-10T05:56:08.632Z,94419.00
2023-05-10T05:57:08.672Z,94417.00
2023-05-10T05:58:08.730Z,94421.00
2023-05-10T05:59:08.801Z,94421.00
2023-05-10T06:00:08.827Z,94421.00
2023-05-10T06:01:08.807Z,94423.00
2023-05-10T06:02:08.843Z,94423.00
2023-05-10T06:03:08.984Z,94423.00
2023-05-10T06:04:08.936Z,94425.00
2023-05-10T06:05:09.397Z,94425.00
2023-05-10T06:06:08.952Z,94423.00
2023-05-10T06:07:08.958Z,94419.00
2023-05-10T06:08:08.898Z,94421.00
2023-05-10T06:09:08.918Z,94423.00
2023-05-10T06:10:08.930Z,94421.00
2023-05-10T06:11:09.431Z,94421.00
2023-05-10T06:12:08.880Z,94427.00
2023-05-10T06:13:09.977Z,94423.00
2023-05-10T06:14:09.010Z,94423.00
2023-05-10T06:15:08.907Z,94425.00
2023-05-10T06:16:08.965Z,94423.00
2023-05-10T06:17:08.987Z,94425.00
2023-05-10T06:18:09.055Z,94425.00
2023-05-10T06:19:08.985Z,94425.00
2023-05-10T06:20:09.015Z,94427.00
2023-05-10T06:21:09.050Z,94429.00
2023-05-10T06:22:09.050Z,94431.00
2023-05-10T06:23:09.102Z,94433.00
2023-05-10T06:24:09.173Z,94437.00
2023-05-10T06:25:09.186Z,94440.00
2023-05-10T06:26:09.321Z,94437.00
2023-05-10T06:27:09.339Z,94440.00
2023-05-10T06:28:10.121Z,94438.00
2023-05-10T06:29:09.455Z,94442.00
2023-05-10T06:30:13.402Z,94444.00
2023-05-10T06:31:09.530Z,94444.00
2023-05-10T06:32:09.538Z,94442.00
2023-05-10T06:33:09.623Z,94444.00
2023-05-10T06:34:09.493Z,94444.00
2023-05-10T06:35:09.470Z,94442.00
2023-05-10T06:36:09.514Z,94442.00
2023-05-10T06:37:09.445Z,94421.00
2023-05-10T06:38:09.517Z,94423.00
2023-05-10T06:39:09.451Z,94421.00
2023-05-10T06:40:09.448Z,94419.00
2023-05-10T06:41:09.447Z,94419.00
2023-05-10T06:42:09.386Z,94421.00
2023-05-10T06:43:09.410Z,94417.00
2023-05-10T06:44:09.872Z,94419.00
2023-05-10T06:45:09.411Z,94419.00
2023-05-10T06:46:09.430Z,94423.00
2023-05-10T06:47:09.370Z,94421.00
2023-05-10T06:48:09.431Z,94419.00
2023-05-10T06:49:09.395Z,94419.00
2023-05-10T06:50:09.498Z,94417.00
2023-05-10T06:51:09.361Z,94437.00
2023-05-10T06:52:09.384Z,94438.00
2023-05-10T06:53:09.398Z,94437.00
2023-05-10T06:54:09.316Z,94437.00
2023-05-10T06:55:09.475Z,94435.00
2023-05-10T06:56:09.372Z,94437.00
2023-05-10T06:57:23.370Z,94435.00
2023-05-10T06:58:10.329Z,94435.00
2023-05-10T06:59:09.331Z,94442.00
2023-05-10T07:00:09.503Z,94438.00
2023-05-10T07:01:09.571Z,94438.00
2023-05-10T07:02:09.344Z,94440.00
2023-05-10T07:03:09.318Z,94440.00
2023-05-10T07:04:09.298Z,94421.00
2023-05-10T07:05:09.315Z,94419.00
2023-05-10T07:06:13.232Z,94419.00
2023-05-10T07:07:09.278Z,94423.00
2023-05-10T07:08:09.255Z,94423.00
2023-05-10T07:09:09.437Z,94421.00
2023-05-10T07:10:09.247Z,94421.00
2023-05-10T07:11:09.247Z,94421.00
2023-05-10T07:12:11.103Z,94419.00
2023-05-10T07:13:09.303Z,94421.00
2023-05-10T07:14:09.202Z,94421.00
2023-05-10T07:15:09.449Z,94419.00
2023-05-10T07:16:09.268Z,94421.00
2023-05-10T07:17:09.268Z,94421.00
2023-05-10T07:18:09.253Z,94421.00
2023-05-10T07:19:09.216Z,94419.00
2023-05-10T07:20:09.199Z,94419.00
2023-05-10T07:21:09.241Z,94417.00
2023-05-10T07:22:09.150Z,94417.00
2023-05-10T07:23:09.170Z,94419.00
2023-05-10T07:24:09.162Z,94421.00
2023-05-10T07:25:09.128Z,94423.00
2023-05-10T07:26:09.140Z,94425.00
2023-05-10T07:27:09.324Z,94427.00
2023-05-10T07:28:09.151Z,94427.00
2023-05-10T07:29:09.264Z,94429.00
2023-05-10T07:30:09.102Z,94429.00
2023-05-10T07:31:09.496Z,94427.00
2023-05-10T07:32:09.171Z,94427.00
2023-05-10T07:33:09.090Z,94427.00
2023-05-10T07:34:09.099Z,94423.00
2023-05-10T07:35:09.094Z,94423.00
2023-05-10T07:36:09.438Z,94421.00
2023-05-10T07:37:09.073Z,94444.00
2023-05-10T07:38:09.055Z,94440.00
2023-05-10T07:39:09.067Z,94421.00
2023-05-10T07:40:09.064Z,94423.00
2023-05-10T07:41:08.992Z,94421.00
2023-05-10T07:42:08.989Z,94423.00
2023-05-10T07:43:08.994Z,94425.00
2023-05-10T07:44:08.991Z,94423.00
2023-05-10T07:45:09.021Z,94427.00
2023-05-10T07:46:09.142Z,94427.00
2023-05-10T07:47:08.984Z,94429.00
2023-05-10T07:48:08.985Z,94429.00
2023-05-10T07:49:08.996Z,94429.00
2023-05-10T07:50:09.032Z,94427.00
2023-05-10T07:51:08.931Z,94433.00
2023-05-10T07:52:08.940Z,94433.00
2023-05-10T07:53:08.952Z,94458.00
2023-05-10T07:54:08.931Z,94458.00
2023-05-10T07:55:08.925Z,94458.00
2023-05-10T07:56:08.929Z,94458.00
2023-05-10T07:57:08.933Z,94458.00
2023-05-10T07:58:08.894Z,94458.00
2023-05-10T07:59:10.695Z,94460.00
2023-05-10T08:00:08.895Z,94456.00
2023-05-10T08:01:08.929Z,94456.00
2023-05-10T08:02:08.883Z,94438.00
2023-05-10T08:03:08.986Z,94440.00
2023-05-10T08:04:08.941Z,94437.00
2023-05-10T08:05:08.913Z,94440.00
2023-05-10T08:06:08.831Z,94438.00
2023-05-10T08:07:08.830Z,94440.00
2023-05-10T08:08:08.838Z,94438.00
2023-05-10T08:09:08.806Z,94442.00
2023-05-10T08:10:08.817Z,94442.00
2023-05-10T08:11:08.783Z,94448.00
2023-05-10T08:12:08.830Z,94444.00
2023-05-10T08:13:08.802Z,94446.00
2023-05-10T08:14:08.790Z,94444.00
2023-05-10T08:15:08.808Z,94446.00
2023-05-10T08:16:08.853Z,94448.00
2023-05-10T08:17:08.776Z,94448.00
2023-05-10T08:18:08.954Z,94448.00
2023-05-10T08:19:08.757Z,94450.00
2023-05-10T08:20:08.728Z,94448.00
2023-05-10T08:21:08.720Z,94450.00
2023-05-10T08:22:08.747Z,94450.00
2023-05-10T08:23:08.741Z,94468.00
2023-05-10T08:24:08.770Z,94446.00
2023-05-10T08:25:08.770Z,94444.00
2023-05-10T08:26:08.705Z,94444.00
2023-05-10T08:27:08.727Z,94444.00
2023-05-10T08:28:09.971Z,94448.00
2023-05-10T08:29:08.883Z,94448.00
2023-05-10T08:30:08.946Z,94452.00
2023-05-10T08:31:08.937Z,94450.00
2023-05-10T08:32:08.902Z,94450.00
2023-05-10T08:33:09.047Z,94452.00
2023-05-10T08:34:08.931Z,94452.00
2023-05-10T08:35:08.998Z,94450.00
2023-05-10T08:36:08.946Z,94452.00
2023-05-10T08:37:09.006Z,94452.00
2023-05-10T08:38:09.045Z,94456.00
2023-05-10T08:39:16.256Z,94456.00
2023-05-10T08:40:10.102Z,94460.00
2023-05-10T08:41:09.085Z,94458.00
2023-05-10T08:42:09.024Z,94460.00
2023-05-10T08:43:09.031Z,94464.00
2023-05-10T08:44:09.058Z,94460.00
2023-05-10T08:45:09.231Z,94466.00
2023-05-10T08:46:09.046Z,94462.00
2023-05-10T08:47:09.151Z,94466.00
2023-05-10T08:48:09.027Z,94464.00
2023-05-10T08:49:09.004Z,94468.00
2023-05-10T08:50:08.988Z,94468.00
2023-05-10T08:51:09.450Z,94468.00
2023-05-10T08:52:09.000Z,94468.00
2023-05-10T08:53:08.964Z,94468.00
2023-05-10T08:54:08.968Z,94468.00
2023-05-10T08:55:08.984Z,94472.00
2023-05-10T08:56:08.962Z,94474.00
2023-05-10T08:57:08.998Z,94470.00
2023-05-10T08:58:08.985Z,94487.00
2023-05-10T08:59:09.058Z,94489.00
2023-05-10T09:00:09.173Z,94489.00
2023-05-10T09:01:09.165Z,94495.00
2023-05-10T09:02:09.113Z,94495.00
2023-05-10T09:03:09.205Z,94493.00
2023-05-10T09:04:09.286Z,94495.00
2023-05-10T09:05:09.281Z,94497.00
2023-05-10T09:06:09.261Z,94497.00
2023-05-10T09:07:09.244Z,94501.00
2023-05-10T09:08:09.260Z,94499.00
2023-05-10T09:09:09.865Z,94499.00
2023-05-10T09:10:09.272Z,94499.00
2023-05-10T09:11:09.334Z,94497.00
2023-05-10T09:12:09.300Z,94499.00
2023-05-10T09:13:09.295Z,94499.00
2023-05-10T09:14:09.426Z,94499.00
2023-05-10T09:15:09.336Z,94499.00
2023-05-10T09:16:20.506Z,94503.00
2023-05-10T09:17:10.381Z,94501.00
2023-05-10T09:18:09.389Z,94503.00
2023-05-10T09:19:09.402Z,94503.00
2023-05-10T09:20:09.301Z,94505.00
2023-05-10T09:21:09.309Z,94487.00
2023-05-10T09:22:09.314Z,94487.00
2023-05-10T09:23:09.289Z,94485.00
2023-05-10T09:24:09.260Z,94484.00
2023-05-10T09:25:09.302Z,94497.00
2023-05-10T09:26:09.245Z,94505.00
2023-05-10T09:27:09.252Z,94503.00
2023-05-10T09:28:09.292Z,94505.00
2023-05-10T09:29:09.271Z,94503.00
2023-05-10T09:30:09.234Z,94487.00
2023-05-10T09:31:09.261Z,94491.00
2023-05-10T09:32:09.230Z,94484.00
2023-05-10T09:33:09.178Z,94491.00
2023-05-10T09:34:09.206Z,94487.00
2023-05-10T09:35:09.418Z,94487.00
2023-05-10T09:36:09.152Z,94501.00
2023-05-10T09:37:09.210Z,94507.00
2023-05-10T09:38:09.161Z,94509.00
2023-05-10T09:39:09.155Z,94503.00
2023-05-10T09:40:09.128Z,94505.00
2023-05-10T09:41:09.139Z,94503.00
2023-05-10T09:42:09.138Z,94503.00
2023-05-10T09:43:09.181Z,94503.00
2023-05-10T09:44:09.163Z,94501.00
2023-05-10T09:45:09.102Z,94503.00
2023-05-10T09:46:09.238Z,94503.00
2023-05-10T09:47:09.328Z,94501.00
2023-05-10T09:48:09.232Z,94503.00
2023-05-10T09:49:09.258Z,94501.00
2023-05-10T09:50:09.345Z,94503.00
2023-05-10T09:51:09.358Z,94503.00
2023-05-10T09:52:09.455Z,94480.00
2023-05-10T09:53:09.461Z,94482.00
2023-05-10T09:54:09.638Z,94480.00
2023-05-10T09:55:09.583Z,94480.00
2023-05-10T09:56:09.678Z,94484.00
2023-05-10T09:57:09.714Z,94484.00
2023-05-10T09:58:09.812Z,94485.00
2023-05-10T09:59:09.836Z,94484.00
2023-05-10T10:00:09.822Z,94485.00
2023-05-10T10:01:09.822Z,94484.00
2023-05-10T10:02:09.822Z,94485.00
2023-05-10T10:03:09.856Z,94484.00
2023-05-10T10:04:09.815Z,94482.00
2023-05-10T10:05:09.934Z,94484.00
2023-05-10T10:06:15.962Z,94482.00
2023-05-10T10:07:10.859Z,94478.00
2023-05-10T10:08:09.991Z,94482.00
2023-05-10T10:09:09.866Z,94480.00
2023-05-10T10:10:09.822Z,94482.00
2023-05-10T10:11:09.868Z,94482.00
2023-05-10T10:12:09.794Z,94484.00
2023-05-10T10:13:09.955Z,94484.00
2023-05-10T10:14:09.973Z,94485.00
2023-05-10T10:15:09.987Z,94487.00
2023-05-10T10:16:09.851Z,94484.00
2023-05-10T10:17:09.925Z,94484.00
2023-05-10T10:18:09.805Z,94485.00
2023-05-10T10:19:09.920Z,94485.00
2023-05-10T10:20:11.883Z,94489.00
2023-05-10T10:21:09.869Z,94487.00
2023-05-10T10:22:10.004Z,94489.00
2023-05-10T10:23:09.917Z,94485.00
2023-05-10T10:24:09.887Z,94487.00
2023-05-10T10:25:09.908Z,94489.00
2023-05-10T10:26:09.894Z,94487.00
2023-05-10T10:27:10.009Z,94487.00
2023-05-10T10:28:09.901Z,94489.00
2023-05-10T10:29:09.923Z,94487.00
2023-05-10T10:30:10.041Z,94485.00
2023-05-10T10:31:10.033Z,94485.00
2023-05-10T10:32:10.059Z,94485.00
2023-05-10T10:33:16.879Z,94487.00
2023-05-10T10:34:11.052Z,94489.00
2023-05-10T10:35:10.554Z,94487.00
2023-05-10T10:36:10.036Z,94485.00
2023-05-10T10:37:10.063Z,94487.00
2023-05-10T10:38:10.073Z,94485.00
2023-05-10T10:39:09.991Z,94489.00
2023-05-10T10:40:10.013Z,94489.00
2023-05-10T10:41:10.060Z,94487.00
2023-05-10T10:42:09.997Z,94487.00
2023-05-10T10:43:10.091Z,94484.00
2023-05-10T10:44:09.980Z,94485.00
2023-05-10T10:45:09.997Z,94484.00
2023-05-10T10:46:09.995Z,94489.00
2023-05-10T10:47:10.057Z,94487.00
2023-05-10T10:48:09.972Z,94485.00
2023-05-10T10:49:09.958Z,94487.00
2023-05-10T10:50:09.930Z,94484.00
2023-05-10T10:51:12.201Z,94503.00
2023-05-10T10:52:09.940Z,94503.00
2023-05-10T10:53:09.993Z,94482.00
2023-05-10T10:54:09.977Z,94484.00
2023-05-10T10:55:10.002Z,94484.00
2023-05-10T10:56:09.901Z,94484.00
2023-05-10T10:57:09.955Z,94487.00
2023-05-10T10:58:09.922Z,94485.00
2023-05-10T10:59:09.898Z,94484.00
2023-05-10T11:00:09.934Z,94484.00
2023-05-10T11:01:09.937Z,94484.00
2023-05-10T11:02:09.913Z,94482.00
2023-05-10T11:03:09.994Z,94485.00
2023-05-10T11:04:09.921Z,94480.00
2023-05-10T11:05:09.897Z,94482.00
2023-05-10T11:06:09.869Z,94482.00
2023-05-10T11:07:09.827Z,94484.00
2023-05-10T11:08:09.795Z,94482.00
2023-05-10T11:09:09.848Z,94480.00
2023-05-10T11:10:10.484Z,94484.00
2023-05-10T11:11:09.890Z,94482.00
2023-05-10T11:12:09.792Z,94482.00
2023-05-10T11:13:09.838Z,94478.00
2023-05-10T11:14:09.832Z,94478.00
2023-05-10T11:15:09.792Z,94476.00
2023-05-10T11:16:09.816Z,94476.00
2023-05-10T11:17:09.863Z,94474.00
2023-05-10T11:18:09.749Z,94474.00
2023-05-10T11:19:09.982Z,94472.00
2023-05-10T11:20:09.759Z,94472.00
2023-05-10T11:21:09.727Z,94472.00
2023-05-10T11:22:09.720Z,94474.00
2023-05-10T11:23:09.752Z,94472.00
2023-05-10T11:24:09.719Z,94470.00
2023-05-10T11:25:09.692Z,94472.00
2023-05-10T11:26:10.490Z,94470.00
2023-05-10T11:27:09.722Z,94468.00
2023-05-10T11:28:09.902Z,94468.00
2023-05-10T11:29:09.692Z,94470.00
2023-05-10T11:30:09.682Z,94466.00
2023-05-10T11:31:09.680Z,94472.00
2023-05-10T11:32:09.649Z,94470.00
2023-05-10T11:33:09.764Z,94470.00
2023-05-10T11:34:09.653Z,94472.00
2023-05-10T11:35:09.648Z,94470.00
2023-05-10T11:36:09.722Z,94472.00
2023-05-10T11:37:09.633Z,94470.00
2023-05-10T11:38:09.661Z,94470.00
2023-05-10T11:39:09.644Z,94470.00
2023-05-10T11:40:09.649Z,94470.00
2023-05-10T11:41:09.600Z,94470.00
2023-05-10T11:42:09.602Z,94470.00
2023-05-10T11:43:09.604Z,94470.00
2023-05-10T11:44:09.595Z,94468.00